Time;durP1;ratioP1;P1;durP2;ratioP2;P2;SDS_P1;SDS_P2;PMS_P1;PMS_P2;Temp;Humidity;BMP_temperature;BMP_pressure;BME280_temperature;BME280_humidity;BME280_pressure;Samples;Min_cycle;Max_cycle;Signal;HPM_P1;HPM_P2
2023/10/11 00:02:49;;;;;;;104.63;40.58;;;;;;;;;;6264603;28;20068;-57
2023/10/11 00:05:53;;;;;;;112.78;39.65;;;;;;;;;;6264615;28;20072;-54
2023/10/11 00:08:53;;;;;;;93.00;37.80;;;;;;;;;;6266528;28;20045;-55
2023/10/11 00:11:56;;;;;;;115.10;38.30;;;;;;;;;;6267299;28;20594;-52
2023/10/11 00:14:57;;;;;;;;;;;;;;;;;;6266197;28;20144;-53
2023/10/11 00:17:58;;;;;;;115.47;39.80;;;;;;;;;;6265459;28;20404;-55
2023/10/11 00:20:59;;;;;;;103.63;40.08;;;;;;;;;;6264603;28;20052;-56
2023/10/11 00:24:01;;;;;;;114.30;39.80;;;;;;;;;;6264191;28;20045;-55
2023/10/11 00:27:02;;;;;;;133.80;41.95;;;;;;;;;;6264389;28;20120;-54
2023/10/11 00:30:03;;;;;;;107.10;40.90;;;;;;;;;;6266126;28;20296;-54
2023/10/11 00:33:07;;;;;;;116.70;41.50;;;;;;;;;;6261676;28;20051;-54
2023/10/11 00:36:08;;;;;;;160.77;48.80;;;;;;;;;;6252332;28;20545;-55
2023/10/11 00:39:10;;;;;;;139.00;47.08;;;;;;;;;;6266151;28;20068;-54
2023/10/11 00:42:11;;;;;;;134.13;46.35;;;;;;;;;;6265460;28;20048;-55
2023/10/11 00:45:16;;;;;;;140.40;47.75;;;;;;;;;;6266283;28;20491;-58
2023/10/11 00:48:19;;;;;;;142.38;47.80;;;;;;;;;;6266435;28;20037;-55
2023/10/11 00:51:23;;;;;;;137.65;49.72;;;;;;;;;;6264779;28;20049;-56
2023/10/11 00:54:27;;;;;;;132.07;47.88;;;;;;;;;;6264752;28;20049;-57
2023/10/11 00:57:27;;;;;;;109.25;43.85;;;;;;;;;;6264192;28;20079;-55
2023/10/11 01:00:35;;;;;;;100.63;42.40;;;;;;;;;;6263225;28;20045;-58
2023/10/11 01:03:37;;;;;;;95.07;39.75;;;;;;;;;;6265139;28;20415;-55
2023/10/11 01:06:38;;;;;;;94.28;38.72;;;;;;;;;;6264129;28;20107;-63
2023/10/11 01:09:38;;;;;;;93.32;38.85;;;;;;;;;;6261706;28;20037;-55
2023/10/11 01:12:39;;;;;;;90.65;39.10;;;;;;;;;;6264954;28;20158;-56
2023/10/11 01:15:42;;;;;;;95.00;37.95;;;;;;;;;;6263657;28;20041;-58
2023/10/11 01:18:43;;;;;;;88.60;36.30;;;;;;;;;;6263448;28;20041;-58
2023/10/11 01:21:51;;;;;;;93.32;38.22;;;;;;;;;;6262942;28;20072;-58
2023/10/11 01:24:54;;;;;;;94.00;38.42;;;;;;;;;;6264184;28;20044;-59
2023/10/11 01:27:55;;;;;;;89.97;38.20;;;;;;;;;;6264126;28;20119;-59
2023/10/11 01:30:56;;;;;;;94.45;39.95;;;;;;;;;;6262738;28;20044;-59
2023/10/11 01:33:58;;;;;;;88.97;36.47;;;;;;;;;;6260196;28;20045;-54
2023/10/11 01:36:59;;;;;;;92.78;41.20;;;;;;;;;;6263700;28;20045;-56
2023/10/11 01:40:00;;;;;;;90.43;39.28;;;;;;;;;;6263193;28;20484;-55
2023/10/11 01:43:03;;;;;;;84.03;36.00;;;;;;;;;;6264094;28;20045;-52
2023/10/11 01:46:04;;;;;;;87.88;36.55;;;;;;;;;;6264038;28;20045;-58
2023/10/11 01:49:05;;;;;;;78.75;34.53;;;;;;;;;;6262037;28;20511;-54
2023/10/11 01:52:12;;;;;;;81.50;34.90;;;;;;;;;;6261528;28;20045;-53
2023/10/11 01:55:13;;;;;;;77.38;34.17;;;;;;;;;;6249936;28;20049;-57
2023/10/11 01:58:15;;;;;;;80.57;34.97;;;;;;;;;;6261984;28;20085;-60
2023/10/11 02:01:21;;;;;;;85.95;34.97;;;;;;;;;;6265131;28;20055;-55
2023/10/11 02:04:22;;;;;;;79.85;34.72;;;;;;;;;;6262941;28;20311;-56
2023/10/11 02:07:23;;;;;;;84.85;35.00;;;;;;;;;;6263023;28;20098;-55
2023/10/11 02:10:26;;;;;;;83.80;34.92;;;;;;;;;;6264065;28;20476;-56
2023/10/11 02:13:27;;;;;;;83.88;34.45;;;;;;;;;;6264577;28;20048;-54
2023/10/11 02:16:28;;;;;;;92.40;39.70;;;;;;;;;;6263557;28;20060;-59
2023/10/11 02:19:29;;;;;;;95.60;40.60;;;;;;;;;;6259210;28;20095;-56
2023/10/11 02:22:32;;;;;;;110.95;45.05;;;;;;;;;;6262265;28;20048;-56
2023/10/11 02:25:34;;;;;;;118.68;48.33;;;;;;;;;;6262967;28;20043;-58
2023/10/11 02:28:38;;;;;;;101.43;41.42;;;;;;;;;;6262995;28;20503;-56
2023/10/11 02:31:39;;;;;;;94.55;40.70;;;;;;;;;;6264032;28;20045;-56
2023/10/11 02:34:41;;;;;;;101.22;42.25;;;;;;;;;;6262934;28;20404;-57
2023/10/11 02:37:45;;;;;;;;;;;;;;;;;;6261771;28;20055;-55
2023/10/11 02:40:46;;;;;;;97.88;38.55;;;;;;;;;;6262588;28;19925;-53
2023/10/11 02:43:49;;;;;;;89.32;37.05;;;;;;;;;;6262606;28;20045;-56
2023/10/11 02:46:51;;;;;;;97.75;40.42;;;;;;;;;;6265709;28;20052;-59
2023/10/11 02:49:53;;;;;;;94.63;40.90;;;;;;;;;;6267783;28;20053;-55
2023/10/11 02:53:05;;;;;;;102.32;41.63;;;;;;;;;;6269354;28;20049;-56
2023/10/11 02:56:05;;;;;;;98.38;41.58;;;;;;;;;;6263873;28;20430;-57
2023/10/11 02:59:07;;;;;;;101.38;40.35;;;;;;;;;;6265401;28;20111;-54
2023/10/11 03:02:07;;;;;;;98.90;41.05;;;;;;;;;;6267681;28;20044;-56
2023/10/11 03:05:08;;;;;;;101.57;41.55;;;;;;;;;;6267462;28;20041;-50
2023/10/11 03:08:16;;;;;;;92.35;39.60;;;;;;;;;;6265018;28;20044;-58
2023/10/11 03:11:17;;;;;;;94.30;38.95;;;;;;;;;;6267320;28;20499;-54
2023/10/11 03:14:20;;;;;;;92.40;40.13;;;;;;;;;;6267952;28;20049;-56
2023/10/11 03:17:22;;;;;;;91.95;38.95;;;;;;;;;;6267901;28;20290;-57
2023/10/11 03:20:28;;;;;;;102.20;43.05;;;;;;;;;;6265781;28;20045;-56
2023/10/11 03:23:29;;;;;;;99.95;42.78;;;;;;;;;;6251542;28;20052;-56
2023/10/11 03:29:30;;;;;;;102.75;42.08;;;;;;;;;;6268455;28;20041;-56
2023/10/11 03:32:31;;;;;;;95.80;39.23;;;;;;;;;;6265302;28;20045;-59
2023/10/11 03:35:34;;;;;;;94.20;39.75;;;;;;;;;;6263548;28;20468;-58
2023/10/11 03:38:40;;;;;;;99.10;41.58;;;;;;;;;;6264522;28;20044;-56
2023/10/11 03:41:50;;;;;;;89.63;38.47;;;;;;;;;;6260485;28;20531;-55
2023/10/11 03:44:53;;;;;;;100.85;40.53;;;;;;;;;;6266333;28;20048;-54
2023/10/11 03:47:58;;;;;;;;;;;;;;;;;;6267669;28;20094;-54
2023/10/11 03:50:59;;;;;;;97.93;42.00;;;;;;;;;;6268383;28;19921;-56
2023/10/11 03:54:04;;;;;;;116.93;46.85;;;;;;;;;;6264943;28;20052;-54
2023/10/11 03:57:05;;;;;;;105.10;44.67;;;;;;;;;;6262310;28;20094;-57
2023/10/11 04:00:24;;;;;;;108.40;44.15;;;;;;;;;;6264960;28;20081;-56
2023/10/11 04:03:25;;;;;;;109.20;45.42;;;;;;;;;;6251627;28;20055;-64
2023/10/11 04:06:26;;;;;;;100.50;41.88;;;;;;;;;;6266853;28;20045;-62
2023/10/11 04:10:09;;;;;;;103.53;43.58;;;;;;;;;;6267824;28;20378;-63
2023/10/11 04:12:54;;;;;;;105.95;44.35;;;;;;;;;;6260989;28;20223;-63
2023/10/11 04:15:55;;;;;;;98.90;42.70;;;;;;;;;;6264760;28;20045;-63
2023/10/11 04:19:00;;;;;;;97.40;42.65;;;;;;;;;;6266558;28;20408;-63
2023/10/11 04:22:12;;;;;;;107.63;42.03;;;;;;;;;;6266029;28;20506;-61
2023/10/11 04:25:14;;;;;;;107.20;45.17;;;;;;;;;;6257970;28;20056;-59
2023/10/11 04:28:14;;;;;;;;;;;;;;;;;;6266056;28;20048;-62
2023/10/11 04:34:38;;;;;;;102.53;44.85;;;;;;;;;;6248993;28;20052;-53
2023/10/11 04:37:51;;;;;;;99.15;44.53;;;;;;;;;;6262762;28;20041;-58
2023/10/11 04:40:52;;;;;;;99.22;44.55;;;;;;;;;;6265759;28;20120;-51
2023/10/11 04:44:04;;;;;;;95.72;42.75;;;;;;;;;;6266252;28;20423;-54
2023/10/11 04:47:06;;;;;;;;;;;;;;;;;;6263627;28;20047;-52
2023/10/11 04:50:11;;;;;;;98.22;41.58;;;;;;;;;;6264387;28;19925;-55
2023/10/11 04:53:18;;;;;;;100.18;43.70;;;;;;;;;;6264226;28;20051;-55
2023/10/11 04:59:39;;;;;;;105.82;44.38;;;;;;;;;;6264767;28;20057;-56
2023/10/11 05:02:40;;;;;;;108.30;45.53;;;;;;;;;;6265890;28;20056;-58
2023/10/11 05:05:58;;;;;;;109.13;46.10;;;;;;;;;;6265320;28;20041;-53
2023/10/11 05:09:12;;;;;;;104.43;45.13;;;;;;;;;;6252803;28;20037;-58
2023/10/11 05:12:12;;;;;;;104.57;43.25;;;;;;;;;;6260443;28;20045;-53
2023/10/11 05:15:15;;;;;;;113.82;46.92;;;;;;;;;;6263157;28;20376;-53
2023/10/11 05:18:23;;;;;;;116.07;47.13;;;;;;;;;;6264274;28;20528;-55
2023/10/11 05:21:26;;;;;;;110.18;44.28;;;;;;;;;;6261503;28;20053;-53
2023/10/11 05:31:22;;;;;;;72.55;33.63;;;;;;;;;;6258707;28;20053;-55
2023/10/11 05:34:46;;;;;;;78.57;33.63;;;;;;;;;;6265614;28;20056;-55
2023/10/11 05:51:11;;;;;;;78.07;31.52;;;;;;;;;;6261909;28;20045;-52
2023/10/11 05:54:13;;;;;;;74.25;34.35;;;;;;;;;;6263612;28;20059;-54
2023/10/11 05:57:13;;;;;;;76.22;33.67;;;;;;;;;;6262087;28;20454;-51
2023/10/11 06:00:38;;;;;;;74.78;31.05;;;;;;;;;;6261821;28;20052;-54
2023/10/11 06:03:38;;;;;;;64.40;28.80;;;;;;;;;;6252885;28;20131;-52
2023/10/11 06:06:38;;;;;;;64.00;29.30;;;;;;;;;;6264099;28;20044;-56
2023/10/11 06:09:43;;;;;;;64.65;28.10;;;;;;;;;;6262487;28;20049;-52
2023/10/11 06:12:44;;;;;;;56.72;27.42;;;;;;;;;;6260109;28;20049;-52
2023/10/11 06:15:58;;;;;;;69.78;27.85;;;;;;;;;;6263241;28;20055;-55
2023/10/11 06:19:15;;;;;;;70.88;31.13;;;;;;;;;;6263469;28;20057;-53
2023/10/11 06:22:16;;;;;;;63.35;27.58;;;;;;;;;;6270093;28;20487;-53
2023/10/11 06:25:23;;;;;;;69.15;29.30;;;;;;;;;;6269244;28;20037;-54
2023/10/11 06:28:30;;;;;;;63.85;27.02;;;;;;;;;;6269227;28;20059;-52
2023/10/11 06:31:39;;;;;;;68.78;27.30;;;;;;;;;;6268516;28;20044;-53
2023/10/11 06:34:40;;;;;;;52.13;23.67;;;;;;;;;;6267135;28;20065;-54
2023/10/11 06:37:40;;;;;;;47.53;20.10;;;;;;;;;;6266898;28;20045;-55
2023/10/11 06:40:48;;;;;;;45.10;18.08;;;;;;;;;;6268745;28;20048;-51
2023/10/11 06:43:49;;;;;;;40.97;18.35;;;;;;;;;;6267603;28;20055;-53
2023/10/11 06:46:50;;;;;;;46.55;17.40;;;;;;;;;;6265738;28;20521;-55
2023/10/11 06:49:55;;;;;;;42.20;18.15;;;;;;;;;;6268709;28;20040;-53
2023/10/11 06:52:56;;;;;;;40.80;18.65;;;;;;;;;;6268731;28;20102;-57
2023/10/11 06:55:58;;;;;;;38.88;17.55;;;;;;;;;;6267560;28;20049;-55
2023/10/11 06:59:00;;;;;;;38.63;16.52;;;;;;;;;;6270432;28;20049;-54
2023/10/11 07:02:00;;;;;;;40.08;16.95;;;;;;;;;;6265995;28;20218;-54
2023/10/11 07:05:13;;;;;;;41.28;16.95;;;;;;;;;;6267306;28;20044;-55
2023/10/11 07:08:18;;;;;;;41.10;17.75;;;;;;;;;;6255540;28;20044;-54
2023/10/11 07:11:43;;;;;;;42.22;16.98;;;;;;;;;;6266369;28;20139;-54
2023/10/11 07:14:44;;;;;;;36.67;16.35;;;;;;;;;;6267136;28;20060;-54
2023/10/11 07:17:44;;;;;;;40.67;16.50;;;;;;;;;;6267020;28;20136;-54
2023/10/11 07:20:47;;;;;;;39.47;16.13;;;;;;;;;;6268120;28;20041;-56
2023/10/11 07:26:56;;;;;;;36.53;15.10;;;;;;;;;;6268090;28;20041;-56
2023/10/11 07:30:00;;;;;;;38.15;14.57;;;;;;;;;;6267194;28;20513;-56
2023/10/11 07:33:04;;;;;;;32.08;14.48;;;;;;;;;;6266627;28;20048;-56
2023/10/11 07:36:11;;;;;;;29.35;13.50;;;;;;;;;;6266502;28;20135;-56
2023/10/11 07:42:27;;;;;;;30.98;13.02;;;;;;;;;;6267452;28;20053;-58
2023/10/11 07:45:28;;;;;;;28.23;13.30;;;;;;;;;;6265184;28;20041;-56
2023/10/11 07:48:32;;;;;;;34.90;13.88;;;;;;;;;;6266144;28;20488;-54
2023/10/11 07:51:41;;;;;;;30.63;12.70;;;;;;;;;;6266482;28;20041;-52
2023/10/11 07:54:43;;;;;;;30.50;12.48;;;;;;;;;;6266229;28;20049;-57
2023/10/11 07:57:46;;;;;;;30.05;13.13;;;;;;;;;;6266851;28;20045;-53
2023/10/11 08:00:47;;;;;;;24.92;11.60;;;;;;;;;;6264162;28;20328;-55
2023/10/11 08:03:47;;;;;;;25.83;11.57;;;;;;;;;;6265027;28;20045;-53
2023/10/11 08:06:59;;;;;;;27.75;10.80;;;;;;;;;;6267136;28;20049;-55
2023/10/11 08:10:10;;;;;;;27.33;10.70;;;;;;;;;;6267810;28;20508;-56
2023/10/11 08:13:26;;;;;;;23.70;9.73;;;;;;;;;;6266058;28;20884;-54
2023/10/11 08:16:27;;;;;;;24.50;11.00;;;;;;;;;;6264114;28;20324;-53
2023/10/11 08:19:27;;;;;;;23.02;10.77;;;;;;;;;;6266470;28;20045;-55
2023/10/11 08:22:28;;;;;;;27.10;10.60;;;;;;;;;;6264789;28;20040;-55
2023/10/11 08:25:30;;;;;;;26.38;10.57;;;;;;;;;;6264963;28;20041;-57
2023/10/11 08:28:35;;;;;;;21.40;11.02;;;;;;;;;;6268853;28;20041;-54
2023/10/11 08:31:39;;;;;;;19.90;9.77;;;;;;;;;;6262920;28;20412;-54
2023/10/11 08:34:46;;;;;;;27.27;10.18;;;;;;;;;;6265837;28;20053;-56
2023/10/11 08:37:52;;;;;;;22.08;9.18;;;;;;;;;;6266248;28;20094;-55
2023/10/11 08:40:58;;;;;;;23.30;9.73;;;;;;;;;;6264285;28;20053;-53
2023/10/11 08:44:15;;;;;;;23.55;9.73;;;;;;;;;;6262727;28;20049;-55
2023/10/11 08:47:19;;;;;;;26.50;9.27;;;;;;;;;;6265908;28;20060;-53
2023/10/11 08:50:21;;;;;;;18.33;8.88;;;;;;;;;;6263126;28;20136;-54
2023/10/11 08:53:22;;;;;;;31.05;8.98;;;;;;;;;;6264939;28;20128;-55
2023/10/11 08:56:23;;;;;;;25.27;9.38;;;;;;;;;;6267089;28;20056;-55
2023/10/11 08:59:27;;;;;;;18.07;8.80;;;;;;;;;;6264412;28;20515;-54
2023/10/11 09:02:29;;;;;;;27.30;9.23;;;;;;;;;;6264703;28;20071;-52
2023/10/11 09:05:42;;;;;;;30.00;9.45;;;;;;;;;;6264264;28;20072;-55
2023/10/11 09:08:47;;;;;;;20.48;8.45;;;;;;;;;;6263742;28;20041;-54
2023/10/11 09:11:54;;;;;;;20.05;8.02;;;;;;;;;;6265082;28;20077;-57
2023/10/11 09:14:58;;;;;;;24.88;8.63;;;;;;;;;;6266173;28;20057;-56
2023/10/11 09:18:15;;;;;;;22.73;8.88;;;;;;;;;;6263795;28;20250;-55
2023/10/11 09:21:15;;;;;;;27.83;8.57;;;;;;;;;;6264201;28;20427;-55
2023/10/11 09:24:26;;;;;;;21.38;7.95;;;;;;;;;;6265152;28;20045;-56
2023/10/11 09:27:41;;;;;;;19.92;8.90;;;;;;;;;;6265308;28;20049;-53
2023/10/11 09:30:44;;;;;;;21.05;7.63;;;;;;;;;;6264863;28;20045;-56
2023/10/11 09:33:50;;;;;;;23.67;8.95;;;;;;;;;;6262971;28;20041;-57
2023/10/11 09:36:56;;;;;;;27.73;8.65;;;;;;;;;;6262150;28;20125;-58
2023/10/11 09:40:00;;;;;;;25.00;8.30;;;;;;;;;;6263737;28;20403;-55
2023/10/11 09:43:02;;;;;;;19.10;7.35;;;;;;;;;;6263651;28;20080;-56
2023/10/11 09:46:11;;;;;;;23.73;7.97;;;;;;;;;;6264265;28;20055;-56
2023/10/11 09:49:15;;;;;;;20.05;7.97;;;;;;;;;;6262172;28;20486;-56
2023/10/11 09:52:18;;;;;;;25.38;8.10;;;;;;;;;;6263151;28;20057;-57
2023/10/11 09:55:31;;;;;;;22.80;8.20;;;;;;;;;;6262848;28;20427;-55
2023/10/11 09:58:42;;;;;;;24.75;7.75;;;;;;;;;;6261210;28;20063;-55
2023/10/11 10:01:55;;;;;;;31.45;8.45;;;;;;;;;;6263073;28;20108;-54
2023/10/11 10:04:57;;;;;;;23.75;7.40;;;;;;;;;;6263673;28;20047;-55
2023/10/11 10:08:13;;;;;;;25.73;8.73;;;;;;;;;;6263094;28;20055;-56
2023/10/11 10:11:16;;;;;;;25.30;7.30;;;;;;;;;;6263875;28;20083;-55
2023/10/11 10:14:25;;;;;;;27.80;7.47;;;;;;;;;;6264527;28;20091;-55
2023/10/11 10:17:28;;;;;;;18.75;7.05;;;;;;;;;;6264266;28;20147;-55
2023/10/11 10:20:28;;;;;;;24.63;7.13;;;;;;;;;;6264001;28;20140;-56
2023/10/11 10:23:32;;;;;;;28.60;8.53;;;;;;;;;;6260526;28;20052;-56
2023/10/11 10:26:32;;;;;;;28.73;8.23;;;;;;;;;;6263072;28;20084;-56
2023/10/11 10:29:55;;;;;;;23.30;7.17;;;;;;;;;;6264046;28;20567;-55
2023/10/11 10:33:23;;;;;;;20.40;7.40;;;;;;;;;;6263598;28;20102;-55
2023/10/11 10:36:28;;;;;;;22.70;7.07;;;;;;;;;;6263067;28;20080;-56
2023/10/11 10:39:36;;;;;;;24.50;7.78;;;;;;;;;;6264195;28;20427;-57
2023/10/11 10:42:37;;;;;;;18.70;7.38;;;;;;;;;;6264974;28;20045;-63
2023/10/11 10:45:37;;;;;;;21.73;7.83;;;;;;;;;;6262834;28;20052;-56
2023/10/11 10:48:40;;;;;;;23.37;6.77;;;;;;;;;;6262240;28;20053;-57
2023/10/11 10:51:47;;;;;;;23.98;7.40;;;;;;;;;;6262805;28;20052;-59
2023/10/11 10:55:05;;;;;;;23.83;7.10;;;;;;;;;;6261937;28;20721;-62
2023/10/11 10:58:06;;;;;;;27.35;7.72;;;;;;;;;;6262486;28;20049;-63
2023/10/11 11:01:07;;;;;;;25.88;7.78;;;;;;;;;;6262852;28;20496;-58
2023/10/11 11:04:08;;;;;;;21.17;6.70;;;;;;;;;;6278981;28;20087;-57
2023/10/11 11:07:20;;;;;;;;;;;;;;;;;;6265832;28;20557;-57
2023/10/11 11:10:21;;;;;;;32.55;8.15;;;;;;;;;;6268819;28;20066;-56
2023/10/11 11:13:23;;;;;;;22.75;7.32;;;;;;;;;;6267003;28;20094;-56
2023/10/11 11:16:26;;;;;;;22.15;6.75;;;;;;;;;;6267520;28;20119;-56
2023/10/11 11:19:27;;;;;;;20.17;6.65;;;;;;;;;;6267870;28;20044;-54
2023/10/11 11:22:45;;;;;;;24.07;7.90;;;;;;;;;;6269228;28;20404;-57
2023/10/11 11:25:57;;;;;;;23.15;7.25;;;;;;;;;;6267195;28;20114;-57
2023/10/11 11:29:09;;;;;;;21.37;7.63;;;;;;;;;;6266672;28;20105;-55
2023/10/11 11:32:23;;;;;;;23.27;6.93;;;;;;;;;;6267293;28;20439;-56
2023/10/11 11:35:31;;;;;;;28.90;7.72;;;;;;;;;;6264090;28;20373;-55
2023/10/11 11:38:36;;;;;;;23.88;7.65;;;;;;;;;;6255912;28;20552;-57
2023/10/11 11:41:39;;;;;;;21.30;7.28;;;;;;;;;;6267113;28;20045;-56
2023/10/11 11:44:41;;;;;;;20.02;7.10;;;;;;;;;;6263341;28;20420;-54
2023/10/11 11:47:55;;;;;;;25.48;7.45;;;;;;;;;;6267443;28;20126;-57
2023/10/11 11:50:57;;;;;;;26.65;7.40;;;;;;;;;;6266307;28;20047;-56
2023/10/11 11:53:58;;;;;;;20.77;7.28;;;;;;;;;;6268015;28;20056;-56
2023/10/11 11:56:58;;;;;;;23.90;7.60;;;;;;;;;;6265234;28;20438;-55
2023/10/11 12:00:16;;;;;;;24.40;7.60;;;;;;;;;;6267206;28;20546;-55
2023/10/11 12:03:17;;;;;;;30.08;7.72;;;;;;;;;;6263589;28;20124;-56
2023/10/11 12:06:24;;;;;;;24.63;7.73;;;;;;;;;;6266419;28;20047;-55
2023/10/11 12:09:31;;;;;;;26.45;7.60;;;;;;;;;;6266834;28;20095;-57
2023/10/11 12:12:32;;;;;;;21.60;7.63;;;;;;;;;;6266967;28;20049;-56
2023/10/11 12:15:33;;;;;;;24.23;7.77;;;;;;;;;;6265217;28;20137;-56
2023/10/11 12:18:33;;;;;;;23.40;7.27;;;;;;;;;;6265700;28;20045;-56
2023/10/11 12:21:34;;;;;;;20.40;7.40;;;;;;;;;;6266587;28;20057;-55
2023/10/11 12:24:35;;;;;;;20.43;7.27;;;;;;;;;;6264491;28;20472;-55
2023/10/11 12:27:42;;;;;;;18.38;7.75;;;;;;;;;;6266265;28;20127;-57
2023/10/11 12:30:45;;;;;;;23.90;7.38;;;;;;;;;;6266871;28;20083;-55
2023/10/11 12:33:46;;;;;;;21.42;7.45;;;;;;;;;;6264601;28;20063;-57
2023/10/11 12:36:51;;;;;;;28.60;7.83;;;;;;;;;;6264798;28;20087;-56
2023/10/11 12:39:53;;;;;;;24.65;7.57;;;;;;;;;;6265861;28;20300;-56
2023/10/11 12:42:56;;;;;;;25.80;7.20;;;;;;;;;;6265736;28;20052;-55
2023/10/11 12:45:58;;;;;;;20.85;7.80;;;;;;;;;;6264468;28;20059;-55
2023/10/11 12:49:00;;;;;;;25.95;7.47;;;;;;;;;;6266159;28;20060;-57
2023/10/11 12:52:05;;;;;;;21.63;7.50;;;;;;;;;;6261718;28;20053;-58
2023/10/11 12:55:07;;;;;;;26.35;7.43;;;;;;;;;;6263255;28;20127;-54
2023/10/11 12:58:12;;;;;;;25.63;7.93;;;;;;;;;;6265009;28;20183;-54
2023/10/11 13:01:13;;;;;;;24.98;7.43;;;;;;;;;;6265898;28;20136;-55
2023/10/11 13:04:17;;;;;;;25.20;7.80;;;;;;;;;;6265302;28;20048;-54
2023/10/11 13:07:18;;;;;;;25.48;7.60;;;;;;;;;;6265236;28;20726;-54
2023/10/11 13:10:22;;;;;;;28.87;7.83;;;;;;;;;;6264082;28;20055;-56
2023/10/11 13:13:23;;;;;;;25.50;7.60;;;;;;;;;;6267286;28;20049;-54
2023/10/11 13:16:26;;;;;;;21.83;7.10;;;;;;;;;;6264698;28;20053;-55
2023/10/11 13:19:27;;;;;;;30.98;7.68;;;;;;;;;;6264663;28;20491;-53
2023/10/11 13:22:31;;;;;;;24.37;7.80;;;;;;;;;;6263949;28;20055;-61
2023/10/11 13:25:32;;;;;;;22.52;7.05;;;;;;;;;;6248674;28;20044;-57
2023/10/11 13:28:33;;;;;;;21.53;7.70;;;;;;;;;;6255598;28;20499;-57
2023/10/11 13:31:34;;;;;;;22.00;7.53;;;;;;;;;;6250943;28;20445;-51
2023/10/11 13:34:35;;;;;;;23.70;8.23;;;;;;;;;;6249602;28;20575;-54
2023/10/11 13:37:35;;;;;;;25.50;8.10;;;;;;;;;;6253437;28;20134;-54
2023/10/11 13:40:37;;;;;;;23.57;7.60;;;;;;;;;;6253379;28;20715;-55
2023/10/11 13:43:38;;;;;;;;;;;;;;;;;;6254562;28;20060;-55
2023/10/11 13:46:39;;;;;;;22.67;8.35;;;;;;;;;;6250523;28;19936;-55
2023/10/11 13:49:40;;;;;;;24.20;9.17;;;;;;;;;;6251832;28;20419;-55
2023/10/11 13:52:41;;;;;;;22.00;8.43;;;;;;;;;;6254345;28;20052;-54
2023/10/11 13:55:42;;;;;;;26.70;8.17;;;;;;;;;;6250868;28;20045;-54
2023/10/11 13:58:45;;;;;;;21.83;8.77;;;;;;;;;;6251883;28;20061;-55
2023/10/11 14:08:05;;;;;;;25.23;8.80;;;;;;;;;;6250742;28;20661;-56
2023/10/11 14:11:07;;;;;;;24.83;8.65;;;;;;;;;;6252897;28;20067;-55
2023/10/11 14:14:09;;;;;;;24.52;8.25;;;;;;;;;;6252185;28;20473;-55
2023/10/11 14:17:15;;;;;;;27.63;9.20;;;;;;;;;;6250456;28;20579;-55
2023/10/11 14:20:23;;;;;;;23.73;8.82;;;;;;;;;;6252127;28;20037;-54
2023/10/11 14:23:29;;;;;;;31.17;9.57;;;;;;;;;;6248286;28;20061;-57
2023/10/11 14:26:33;;;;;;;22.55;9.15;;;;;;;;;;6251421;28;20099;-54
2023/10/11 14:29:34;;;;;;;27.15;9.35;;;;;;;;;;6251038;28;20788;-54
2023/10/11 14:32:34;;;;;;;21.23;9.83;;;;;;;;;;6253973;28;20059;-56
2023/10/11 14:35:38;;;;;;;23.60;8.43;;;;;;;;;;6249795;28;20049;-56
2023/10/11 14:38:39;;;;;;;26.02;9.15;;;;;;;;;;6252360;28;20088;-55
2023/10/11 14:41:42;;;;;;;26.97;9.23;;;;;;;;;;6252808;28;20041;-56
2023/10/11 14:44:43;;;;;;;23.27;8.88;;;;;;;;;;6255564;28;20126;-56
2023/10/11 14:47:46;;;;;;;25.90;8.63;;;;;;;;;;6254980;28;20500;-51
2023/10/11 14:50:46;;;;;;;27.52;9.48;;;;;;;;;;6253413;28;20079;-54
2023/10/11 14:53:48;;;;;;;23.80;8.63;;;;;;;;;;6256033;28;20053;-52
2023/10/11 14:56:49;;;;;;;24.40;9.50;;;;;;;;;;6257953;28;20132;-56
2023/10/11 14:59:50;;;;;;;26.60;9.50;;;;;;;;;;6259008;28;20053;-57
2023/10/11 15:02:52;;;;;;;31.30;9.43;;;;;;;;;;6259602;28;20667;-56
2023/10/11 15:05:52;;;;;;;;;;;;;;;;;;6258033;28;20110;-55
2023/10/11 15:08:53;;;;;;;27.20;9.55;;;;;;;;;;6258299;28;19924;-54
2023/10/11 15:11:53;;;;;;;22.63;9.27;;;;;;;;;;6259247;28;20053;-57
2023/10/11 15:14:54;;;;;;;28.57;10.07;;;;;;;;;;6257077;28;20053;-64
2023/10/11 15:18:00;;;;;;;25.27;9.60;;;;;;;;;;6258148;28;20187;-55
2023/10/11 15:21:05;;;;;;;23.80;9.48;;;;;;;;;;6258323;28;20053;-59
2023/10/11 15:24:12;;;;;;;22.77;9.20;;;;;;;;;;6258777;28;20397;-54
2023/10/11 15:27:15;;;;;;;26.40;10.20;;;;;;;;;;6258337;28;20053;-54
2023/10/11 15:30:15;;;;;;;28.90;10.13;;;;;;;;;;6258873;28;20708;-54
2023/10/11 15:33:17;;;;;;;25.33;10.37;;;;;;;;;;6258964;28;20987;-50
2023/10/11 15:36:20;;;;;;;26.15;9.77;;;;;;;;;;6257675;28;20148;-60
2023/10/11 15:39:22;;;;;;;30.17;10.68;;;;;;;;;;6257986;28;20052;-52
2023/10/11 15:42:23;;;;;;;30.02;10.40;;;;;;;;;;6256246;28;20878;-57
2023/10/11 15:45:24;;;;;;;32.87;11.20;;;;;;;;;;6256571;28;20052;-53
2023/10/11 15:48:24;;;;;;;25.73;10.47;;;;;;;;;;6259328;28;20144;-53
2023/10/11 15:51:26;;;;;;;28.23;9.73;;;;;;;;;;6274312;28;20828;-49
2023/10/11 15:54:27;;;;;;;30.30;10.30;;;;;;;;;;6256052;28;20139;-52
2023/10/11 15:57:28;;;;;;;24.83;10.10;;;;;;;;;;6258580;28;20045;-48
2023/10/11 16:00:30;;;;;;;26.73;11.80;;;;;;;;;;6256345;28;20150;-52
2023/10/11 16:03:35;;;;;;;29.40;11.88;;;;;;;;;;6257765;28;20041;-52
2023/10/11 16:06:37;;;;;;;38.80;12.30;;;;;;;;;;6257044;28;20392;-59
2023/10/11 16:09:37;;;;;;;;;;;;;;;;;;6256946;28;20051;-50
2023/10/11 16:12:42;;;;;;;25.48;10.20;;;;;;;;;;6258021;28;19928;-56
2023/10/11 16:15:42;;;;;;;25.55;9.95;;;;;;;;;;6255554;28;20514;-64
2023/10/11 16:18:47;;;;;;;26.10;10.57;;;;;;;;;;6258013;28;20135;-52
2023/10/11 16:21:48;;;;;;;30.90;10.38;;;;;;;;;;6257675;28;20126;-60
2023/10/11 16:24:48;;;;;;;26.70;11.30;;;;;;;;;;6254429;28;20140;-63
2023/10/11 16:27:49;;;;;;;29.13;10.73;;;;;;;;;;6258383;28;20809;-55
2023/10/11 16:30:55;;;;;;;34.65;10.88;;;;;;;;;;6256496;28;20525;-61
2023/10/11 16:33:56;;;;;;;25.45;10.80;;;;;;;;;;6256949;28;20098;-60
2023/10/11 16:36:57;;;;;;;37.83;11.27;;;;;;;;;;6255418;28;20582;-60
2023/10/11 16:39:59;;;;;;;27.92;11.70;;;;;;;;;;6256199;28;20052;-55
2023/10/11 16:43:00;;;;;;;26.17;11.18;;;;;;;;;;6256793;28;20044;-54
2023/10/11 16:46:02;;;;;;;30.52;10.27;;;;;;;;;;6255844;28;20044;-55
2023/10/11 16:49:03;;;;;;;26.52;10.93;;;;;;;;;;6256489;28;20056;-55
2023/10/11 16:52:05;;;;;;;30.58;10.63;;;;;;;;;;6257192;28;20057;-56
2023/10/11 16:55:09;;;;;;;32.63;10.98;;;;;;;;;;6255948;28;20117;-59
2023/10/11 16:58:10;;;;;;;30.90;12.55;;;;;;;;;;6254460;28;20701;-61
2023/10/11 17:01:14;;;;;;;39.47;12.95;;;;;;;;;;6251725;28;20492;-61
2023/10/11 17:04:15;;;;;;;27.50;11.45;;;;;;;;;;6252612;28;20053;-58
2023/10/11 17:07:16;;;;;;;27.83;12.23;;;;;;;;;;6253893;28;20059;-51
2023/10/11 17:10:16;;;;;;;30.23;11.63;;;;;;;;;;6254356;28;20118;-54
2023/10/11 17:13:18;;;;;;;25.50;11.27;;;;;;;;;;6253788;28;20080;-54
2023/10/11 17:16:18;;;;;;;28.77;12.00;;;;;;;;;;6252084;28;20179;-55
2023/10/11 17:19:20;;;;;;;31.15;12.07;;;;;;;;;;6253376;28;20044;-62
2023/10/11 17:22:22;;;;;;;28.98;12.57;;;;;;;;;;6254106;28;20549;-59
2023/10/11 17:25:24;;;;;;;35.10;13.23;;;;;;;;;;6251177;28;20053;-55
2023/10/11 17:28:25;;;;;;;25.67;11.38;;;;;;;;;;6253752;28;20052;-59
2023/10/11 17:31:26;;;;;;;36.20;12.63;;;;;;;;;;6252955;28;20143;-60
2023/10/11 17:34:27;;;;;;;31.10;12.25;;;;;;;;;;6251606;28;20312;-57
2023/10/11 17:37:28;;;;;;;29.77;11.95;;;;;;;;;;6254959;28;20045;-55
2023/10/11 17:40:28;;;;;;;27.45;12.27;;;;;;;;;;6253276;28;20041;-61
2023/10/11 17:43:29;;;;;;;33.07;11.93;;;;;;;;;;6253295;28;20045;-56
2023/10/11 17:46:30;;;;;;;36.55;13.13;;;;;;;;;;6252820;28;20045;-55
2023/10/11 17:49:31;;;;;;;41.45;14.95;;;;;;;;;;6255110;28;20051;-56
2023/10/11 17:52:35;;;;;;;29.63;13.02;;;;;;;;;;6252831;28;20052;-62
2023/10/11 17:55:39;;;;;;;29.95;13.23;;;;;;;;;;6251148;28;20063;-53
2023/10/11 17:58:39;;;;;;;31.13;12.55;;;;;;;;;;6253582;28;20057;-60
2023/10/11 18:01:41;;;;;;;30.55;12.43;;;;;;;;;;6253342;28;20068;-54
2023/10/11 18:04:43;;;;;;;37.10;13.07;;;;;;;;;;6250776;28;20056;-59
2023/10/11 18:07:49;;;;;;;32.35;12.50;;;;;;;;;;6254644;28;20048;-56
2023/10/11 18:10:50;;;;;;;35.35;12.57;;;;;;;;;;6250749;28;20057;-56
2023/10/11 18:13:54;;;;;;;29.60;12.05;;;;;;;;;;6248073;28;20045;-55
2023/10/11 18:16:55;;;;;;;32.33;12.05;;;;;;;;;;6254967;28;20048;-55
2023/10/11 18:19:56;;;;;;;32.50;13.10;;;;;;;;;;6258374;28;20945;-54
2023/10/11 18:22:58;;;;;;;29.92;13.20;;;;;;;;;;6257162;28;20052;-54
2023/10/11 18:25:59;;;;;;;30.25;12.70;;;;;;;;;;6257643;28;20036;-55
2023/10/11 18:29:00;;;;;;;29.58;12.50;;;;;;;;;;6260099;28;20480;-55
2023/10/11 18:32:01;;;;;;;28.70;12.20;;;;;;;;;;6257062;28;20407;-55
2023/10/11 18:35:01;;;;;;;31.58;12.18;;;;;;;;;;6254409;28;20475;-56
2023/10/11 18:38:03;;;;;;;32.63;12.20;;;;;;;;;;6256227;28;20450;-60
2023/10/11 18:41:07;;;;;;;27.17;11.25;;;;;;;;;;6256217;28;20469;-58